createdAt,value
2018-09-06T00:00:52.795Z,17.10
2018-09-06T00:03:21.418Z,17.10
2018-09-06T00:05:50.012Z,17.10
2018-09-06T00:08:18.631Z,17.00
2018-09-06T00:10:47.244Z,17.00
2018-09-06T00:13:15.814Z,17.00
2018-09-06T00:15:45.262Z,16.90
2018-09-06T00:18:13.882Z,16.90
2018-09-06T00:20:42.441Z,16.90
2018-09-06T00:23:11.076Z,16.80
2018-09-06T00:25:40.143Z,16.80
2018-09-06T00:28:08.706Z,16.80
2018-09-06T00:30:37.323Z,16.80
2018-09-06T00:33:05.977Z,16.70
2018-09-06T00:35:34.956Z,16.70
2018-09-06T00:38:03.546Z,16.70
2018-09-06T00:40:32.078Z,16.70
2018-09-06T00:43:00.635Z,16.70
2018-09-06T00:45:29.227Z,16.70
2018-09-06T00:47:57.753Z,16.70
2018-09-06T00:53:09.156Z,16.60
2018-09-06T00:55:37.725Z,16.60
2018-09-06T00:58:06.326Z,16.60
2018-09-06T01:00:34.954Z,16.50
2018-09-06T01:03:03.524Z,16.50
2018-09-06T01:05:32.135Z,16.50
2018-09-06T01:08:00.767Z,16.50
2018-09-06T01:10:29.321Z,16.40
2018-09-06T01:12:57.817Z,16.40
2018-09-06T01:15:26.446Z,16.40
2018-09-06T01:17:54.938Z,16.40
2018-09-06T01:20:23.497Z,16.40
2018-09-06T01:22:52.098Z,16.40
2018-09-06T01:25:20.717Z,16.40
2018-09-06T01:27:49.281Z,16.30
2018-09-06T01:30:18.619Z,16.30
2018-09-06T01:32:47.786Z,16.30
2018-09-06T01:35:16.309Z,16.30
2018-09-06T01:37:44.907Z,16.30
2018-09-06T01:40:13.478Z,16.30
2018-09-06T01:42:42.029Z,16.30
2018-09-06T01:45:10.583Z,16.30
2018-09-06T01:47:39.111Z,16.20
2018-09-06T01:50:08.424Z,16.20
2018-09-06T01:52:37.163Z,16.20
2018-09-06T01:55:05.744Z,16.20
2018-09-06T01:57:34.302Z,16.20
2018-09-06T02:00:02.899Z,16.10
2018-09-06T02:02:31.603Z,16.10
2018-09-06T02:05:00.118Z,16.10
2018-09-06T02:07:28.719Z,16.10
2018-09-06T02:09:57.279Z,16.10
2018-09-06T02:12:25.841Z,16.00
2018-09-06T02:14:54.425Z,16.00
2018-09-06T02:17:22.960Z,16.00
2018-09-06T02:19:51.521Z,16.00
2018-09-06T02:22:20.097Z,16.00
2018-09-06T02:24:48.642Z,16.00
2018-09-06T02:27:17.209Z,15.90
2018-09-06T02:29:45.782Z,15.90
2018-09-06T02:32:14.364Z,15.90
2018-09-06T02:34:42.884Z,15.90
2018-09-06T02:37:11.468Z,15.90
2018-09-06T02:39:40.004Z,15.90
2018-09-06T02:42:08.563Z,15.90
2018-09-06T02:44:37.148Z,15.90
2018-09-06T02:47:05.698Z,15.90
2018-09-06T02:49:39.606Z,15.90
2018-09-06T02:52:08.206Z,15.90
2018-09-06T02:54:36.768Z,15.90
2018-09-06T02:57:05.454Z,15.80
2018-09-06T02:59:34.052Z,15.80
2018-09-06T03:02:02.575Z,15.80
2018-09-06T03:04:31.172Z,15.90
2018-09-06T03:06:59.675Z,15.90
2018-09-06T03:09:28.288Z,15.90
2018-09-06T03:12:00.402Z,15.90
2018-09-06T03:14:28.962Z,15.90
2018-09-06T03:16:57.508Z,15.90
2018-09-06T03:19:26.877Z,15.90
2018-09-06T03:21:55.455Z,15.90
2018-09-06T03:24:24.038Z,15.90
2018-09-06T03:26:52.569Z,15.90
2018-09-06T03:29:21.116Z,15.90
2018-09-06T03:31:49.694Z,15.80
2018-09-06T03:34:18.237Z,15.80
2018-09-06T03:36:46.796Z,15.80
2018-09-06T03:39:15.371Z,15.80
2018-09-06T03:41:43.920Z,15.80
2018-09-06T03:44:12.518Z,15.70
2018-09-06T03:46:41.125Z,15.70
2018-09-06T03:49:09.707Z,15.70
2018-09-06T03:51:38.239Z,15.70
2018-09-06T03:54:06.884Z,15.70
2018-09-06T03:56:35.445Z,15.70
2018-09-06T03:59:04.029Z,15.70
2018-09-06T04:01:32.788Z,15.70
2018-09-06T04:04:01.334Z,15.70
2018-09-06T04:06:29.932Z,15.60
2018-09-06T04:08:58.491Z,15.60
2018-09-06T04:11:27.050Z,15.60
2018-09-06T04:13:55.630Z,15.50
2018-09-06T04:16:24.169Z,15.50
2018-09-06T04:18:52.697Z,15.50
2018-09-06T04:21:21.253Z,15.50
2018-09-06T04:23:49.825Z,15.50
2018-09-06T04:26:18.359Z,15.50
2018-09-06T04:28:46.923Z,15.50
2018-09-06T04:31:15.478Z,15.50
2018-09-06T04:33:44.112Z,15.50
2018-09-06T04:36:12.732Z,15.50
2018-09-06T04:38:41.265Z,15.50
2018-09-06T04:41:09.870Z,15.50
2018-09-06T04:43:38.505Z,15.50
2018-09-06T04:46:07.070Z,15.50
2018-09-06T04:48:35.659Z,15.50
2018-09-06T04:51:04.354Z,15.60
2018-09-06T04:53:32.894Z,15.60
2018-09-06T04:56:01.584Z,15.60
2018-09-06T04:58:30.164Z,15.60
2018-09-06T05:00:58.723Z,15.60
2018-09-06T05:03:27.292Z,15.60
2018-09-06T05:05:55.832Z,15.60
2018-09-06T05:08:24.373Z,15.70
2018-09-06T05:10:52.946Z,15.80
2018-09-06T05:13:21.483Z,15.90
2018-09-06T05:15:50.141Z,15.90
2018-09-06T05:18:18.745Z,16.00
2018-09-06T05:20:47.368Z,16.10
2018-09-06T05:23:15.931Z,16.20
2018-09-06T05:25:44.515Z,16.30
2018-09-06T05:28:13.061Z,16.40
2018-09-06T05:30:41.662Z,16.50
2018-09-06T05:33:10.277Z,16.50
2018-09-06T05:35:38.867Z,16.60
2018-09-06T05:38:07.483Z,16.70
2018-09-06T05:40:36.064Z,16.90
2018-09-06T05:43:04.781Z,16.90
2018-09-06T05:45:33.360Z,17.10
2018-09-06T05:48:01.946Z,17.10
2018-09-06T05:50:31.334Z,17.20
2018-09-06T05:53:01.363Z,17.30
2018-09-06T05:55:29.976Z,17.40
2018-09-06T05:57:58.579Z,17.60
2018-09-06T06:00:32.362Z,17.70
2018-09-06T06:03:02.888Z,17.90
2018-09-06T06:05:31.455Z,18.00
2018-09-06T06:08:11.139Z,18.20
2018-09-06T06:10:39.894Z,18.40
2018-09-06T06:13:08.414Z,18.50
2018-09-06T06:15:37.147Z,18.60
2018-09-06T06:18:06.411Z,18.60
2018-09-06T06:20:35.042Z,18.40
2018-09-06T06:23:03.595Z,18.20
2018-09-06T06:25:32.186Z,18.10
2018-09-06T06:28:00.690Z,18.10
2018-09-06T06:30:29.323Z,18.10
2018-09-06T06:32:57.876Z,18.10
2018-09-06T06:35:26.523Z,18.10
2018-09-06T06:37:55.100Z,18.20
2018-09-06T06:40:23.887Z,18.30
2018-09-06T06:42:52.469Z,18.30
2018-09-06T06:45:21.030Z,18.40
2018-09-06T06:47:49.614Z,18.60
2018-09-06T06:50:18.297Z,18.70
2018-09-06T06:52:46.806Z,18.80
2018-09-06T06:55:15.389Z,19.00
2018-09-06T06:57:43.965Z,19.20
2018-09-06T07:00:12.497Z,19.70
2018-09-06T07:02:41.023Z,21.20
2018-09-06T07:05:09.606Z,23.40
2018-09-06T07:07:38.163Z,25.10
2018-09-06T07:10:06.753Z,26.30
2018-09-06T07:12:35.303Z,27.50
2018-09-06T07:15:03.874Z,28.50
2018-09-06T07:17:32.454Z,29.10
2018-09-06T07:20:01.026Z,30.20
2018-09-06T07:22:29.598Z,31.00
2018-09-06T07:24:58.282Z,31.70
2018-09-06T07:27:26.839Z,32.10
2018-09-06T07:29:55.377Z,32.70
2018-09-06T07:32:23.974Z,33.60
2018-09-06T07:34:52.518Z,33.40
2018-09-06T07:37:21.198Z,33.70
2018-09-06T07:39:49.745Z,34.30
2018-09-06T07:42:18.270Z,35.10
2018-09-06T07:44:46.829Z,35.50
2018-09-06T07:47:15.366Z,36.70
2018-09-06T07:49:43.910Z,37.30
2018-09-06T07:52:12.482Z,37.20
2018-09-06T07:54:41.015Z,37.20
2018-09-06T07:57:09.572Z,36.40
2018-09-06T07:59:38.158Z,37.00
2018-09-06T08:02:06.712Z,37.50
2018-09-06T08:04:35.285Z,37.90
2018-09-06T08:07:03.869Z,39.00
2018-09-06T08:09:32.493Z,39.80
2018-09-06T08:12:01.053Z,40.80
2018-09-06T08:14:29.642Z,40.70
2018-09-06T08:16:58.242Z,41.10
2018-09-06T08:19:26.783Z,40.90
2018-09-06T08:21:55.382Z,41.00
2018-09-06T08:24:25.010Z,41.80
2018-09-06T08:26:53.668Z,42.40
2018-09-06T08:29:22.291Z,42.40
2018-09-06T08:31:50.891Z,39.70
2018-09-06T08:34:19.492Z,39.20
2018-09-06T08:36:48.071Z,39.80
2018-09-06T08:39:16.674Z,39.70
2018-09-06T08:41:45.204Z,40.60
2018-09-06T08:44:13.778Z,42.00
2018-09-06T08:46:42.310Z,43.10
2018-09-06T08:49:10.882Z,42.50
2018-09-06T08:51:39.402Z,41.30
2018-09-06T08:54:08.232Z,42.60
2018-09-06T08:56:36.806Z,44.10
2018-09-06T08:59:05.376Z,44.70
2018-09-06T09:01:39.114Z,44.40
2018-09-06T09:04:07.893Z,45.60
2018-09-06T09:06:36.908Z,45.80
2018-09-06T09:09:10.499Z,46.20
2018-09-06T09:11:39.245Z,46.60
2018-09-06T09:14:07.861Z,45.40
2018-09-06T09:16:36.777Z,45.70
2018-09-06T09:19:05.610Z,45.90
2018-09-06T09:21:34.532Z,44.20
2018-09-06T09:24:03.946Z,44.80
2018-09-06T09:26:32.773Z,46.00
2018-09-06T09:29:01.431Z,46.80
2018-09-06T09:31:30.030Z,46.90
2018-09-06T09:33:58.755Z,47.60
2018-09-06T09:36:27.379Z,46.90
2018-09-06T09:38:56.052Z,47.30
2018-09-06T09:41:24.851Z,47.00
2018-09-06T09:43:53.637Z,46.40
2018-09-06T09:48:50.918Z,47.80
2018-09-06T09:51:19.548Z,48.30
2018-09-06T09:53:48.075Z,47.50
2018-09-06T09:56:16.825Z,46.90
2018-09-06T09:58:45.503Z,45.60
2018-09-06T10:01:14.098Z,44.40
2018-09-06T10:03:48.114Z,42.20
2018-09-06T10:06:21.817Z,40.60
2018-09-06T10:08:56.046Z,39.00
2018-09-06T10:11:24.798Z,38.90
2018-09-06T10:13:53.441Z,40.20
2018-09-06T10:16:22.207Z,40.70
2018-09-06T10:18:50.806Z,41.90
2018-09-06T10:21:20.159Z,43.20
2018-09-06T10:23:48.790Z,44.40
2018-09-06T10:26:17.391Z,43.90
2018-09-06T10:28:45.982Z,45.00
2018-09-06T10:31:16.083Z,43.80
2018-09-06T10:33:44.967Z,43.10
2018-09-06T10:36:21.803Z,44.20
2018-09-06T10:38:50.594Z,45.00
2018-09-06T10:41:19.186Z,46.00
2018-09-06T10:43:48.482Z,46.20
2018-09-06T10:46:17.625Z,47.10
2018-09-06T10:48:46.231Z,46.50
2018-09-06T10:51:14.830Z,45.70
2018-09-06T10:53:43.491Z,45.70
2018-09-06T10:56:13.322Z,46.00
2018-09-06T10:58:42.137Z,46.10
2018-09-06T11:01:16.754Z,45.20
2018-09-06T11:03:45.601Z,44.70
2018-09-06T11:06:14.172Z,42.70
2018-09-06T11:08:42.811Z,41.50
2018-09-06T11:11:12.664Z,40.50
2018-09-06T11:13:42.108Z,40.80
2018-09-06T11:16:11.778Z,40.80
2018-09-06T11:18:40.494Z,41.00
2018-09-06T11:21:09.778Z,41.20
2018-09-06T11:23:38.318Z,41.30
2018-09-06T11:26:06.855Z,42.30
2018-09-06T11:28:35.385Z,42.20
2018-09-06T11:31:05.155Z,42.40
2018-09-06T11:33:34.452Z,40.90
2018-09-06T11:36:04.429Z,38.20
2018-09-06T11:38:33.034Z,39.00
2018-09-06T11:41:01.630Z,38.20
2018-09-06T11:43:30.260Z,38.20
2018-09-06T11:45:58.828Z,37.80
2018-09-06T11:48:27.454Z,35.90
2018-09-06T11:50:56.089Z,33.50
2018-09-06T11:53:24.725Z,31.50
2018-09-06T11:55:53.321Z,30.10
2018-09-06T11:58:21.958Z,29.20
2018-09-06T12:00:51.551Z,28.70
2018-09-06T12:03:20.271Z,28.50
2018-09-06T12:05:48.886Z,28.40
2018-09-06T12:08:17.492Z,28.10
2018-09-06T12:10:46.310Z,28.10
2018-09-06T12:13:14.963Z,28.00
2018-09-06T12:15:43.571Z,28.10
2018-09-06T12:18:12.702Z,28.10
2018-09-06T12:21:44.492Z,27.90
2018-09-06T12:24:13.902Z,28.10
2018-09-06T12:26:44.303Z,28.20
2018-09-06T12:29:12.935Z,28.50
2018-09-06T12:31:41.763Z,29.00
2018-09-06T12:34:10.499Z,29.40
2018-09-06T12:36:39.208Z,29.60
2018-09-06T12:39:09.034Z,29.90
2018-09-06T12:41:38.277Z,30.00
2018-09-06T12:44:07.109Z,30.20
2018-09-06T12:46:37.484Z,30.10
2018-09-06T12:49:07.102Z,29.80
2018-09-06T12:51:35.762Z,29.50
2018-09-06T12:54:05.455Z,29.30
2018-09-06T12:56:34.168Z,29.10
2018-09-06T12:59:02.763Z,28.90
2018-09-06T13:01:31.366Z,28.90
2018-09-06T13:03:59.898Z,29.00
2018-09-06T13:06:28.504Z,29.00
2018-09-06T13:08:58.470Z,28.90
2018-09-06T13:11:31.755Z,28.70
2018-09-06T13:14:00.349Z,28.70
2018-09-06T13:16:28.918Z,28.60
2018-09-06T13:18:57.527Z,28.80
2018-09-06T13:21:26.118Z,28.90
2018-09-06T13:23:54.721Z,29.00
2018-09-06T13:26:23.319Z,29.40
2018-09-06T13:28:51.986Z,29.70
2018-09-06T13:31:20.827Z,30.20
2018-09-06T13:33:49.410Z,30.70
2018-09-06T13:36:17.947Z,31.20
2018-09-06T13:38:47.808Z,31.50
2018-09-06T13:41:16.376Z,31.80
2018-09-06T13:43:44.910Z,32.20
2018-09-06T13:46:13.486Z,32.50
2018-09-06T13:48:42.782Z,32.70
2018-09-06T13:51:12.010Z,32.70
2018-09-06T13:53:40.575Z,32.10
2018-09-06T13:56:09.262Z,31.80
2018-09-06T13:58:37.930Z,31.70
2018-09-06T14:01:07.185Z,31.50
2018-09-06T14:03:37.028Z,31.20
2018-09-06T14:06:05.840Z,30.80
2018-09-06T14:08:34.652Z,30.40
2018-09-06T14:11:03.311Z,29.90
2018-09-06T14:13:31.924Z,29.70
2018-09-06T14:16:00.542Z,29.60
2018-09-06T14:18:29.166Z,29.40
2018-09-06T14:20:58.358Z,29.40
2018-09-06T14:23:26.901Z,29.50
2018-09-06T14:25:55.505Z,29.50
2018-09-06T14:28:24.187Z,29.40
2018-09-06T14:30:52.755Z,29.40
2018-09-06T14:33:21.278Z,29.00
2018-09-06T14:35:49.891Z,28.80
2018-09-06T14:38:18.551Z,28.60
2018-09-06T14:40:47.115Z,28.40
2018-09-06T14:43:16.674Z,28.30
2018-09-06T14:45:45.253Z,28.20
2018-09-06T14:48:13.806Z,28.00
2018-09-06T14:50:42.473Z,27.90
2018-09-06T14:53:11.874Z,27.70
2018-09-06T14:55:40.419Z,27.50
2018-09-06T14:58:09.029Z,27.40
2018-09-06T15:00:37.838Z,27.40
2018-09-06T15:03:06.384Z,27.20
2018-09-06T15:05:34.987Z,26.80
2018-09-06T15:08:04.213Z,26.40
2018-09-06T15:10:32.777Z,26.00
2018-09-06T15:13:01.439Z,25.80
2018-09-06T15:15:30.050Z,25.70
2018-09-06T15:17:58.651Z,25.60
2018-09-06T15:20:27.279Z,25.60
2018-09-06T15:22:55.824Z,25.50
2018-09-06T15:25:25.235Z,25.50
2018-09-06T15:27:54.531Z,25.40
2018-09-06T15:30:23.038Z,25.30
2018-09-06T15:32:51.686Z,25.10
2018-09-06T15:35:20.222Z,25.10
2018-09-06T15:37:48.830Z,24.90
2018-09-06T15:40:17.463Z,24.80
2018-09-06T15:42:46.114Z,24.70
2018-09-06T15:45:14.640Z,24.50
2018-09-06T15:47:44.140Z,24.40
2018-09-06T15:50:13.518Z,24.30
2018-09-06T15:52:42.126Z,24.20
2018-09-06T15:55:11.026Z,24.00
2018-09-06T15:57:40.223Z,23.90
2018-09-06T16:00:09.169Z,23.80
2018-09-06T16:02:38.956Z,23.70
2018-09-06T16:05:07.766Z,23.60
2018-09-06T16:07:36.381Z,23.40
2018-09-06T16:10:05.035Z,23.30
2018-09-06T16:12:34.506Z,23.20
2018-09-06T16:15:03.235Z,23.10
2018-09-06T16:17:31.869Z,23.00
2018-09-06T16:20:01.250Z,22.90
2018-09-06T16:22:29.834Z,22.80
2018-09-06T16:24:58.452Z,22.60
2018-09-06T16:27:27.186Z,22.50
2018-09-06T16:29:55.831Z,22.40
2018-09-06T16:32:24.482Z,22.30
2018-09-06T16:34:53.044Z,22.20
2018-09-06T16:37:22.158Z,22.00
2018-09-06T16:39:51.505Z,21.90
2018-09-06T16:42:23.377Z,21.80
2018-09-06T16:44:54.844Z,21.60
2018-09-06T16:47:24.280Z,21.40
2018-09-06T16:49:54.212Z,21.20
2018-09-06T16:52:23.485Z,21.00
2018-09-06T16:54:52.078Z,20.80
2018-09-06T16:57:22.353Z,20.50
2018-09-06T16:59:53.799Z,20.30
2018-09-06T17:02:23.002Z,20.30
2018-09-06T17:04:53.510Z,20.20
2018-09-06T17:07:23.908Z,20.10
2018-09-06T17:09:53.519Z,20.00
2018-09-06T17:12:23.462Z,19.90
2018-09-06T17:14:52.141Z,19.90
2018-09-06T17:17:21.137Z,19.80
2018-09-06T17:19:51.060Z,19.90
2018-09-06T17:22:20.261Z,19.70
2018-09-06T17:24:49.929Z,19.70
2018-09-06T17:27:24.050Z,19.60
2018-09-06T17:29:55.429Z,19.60
2018-09-06T17:35:24.062Z,19.50
2018-09-06T17:37:53.202Z,19.50
2018-09-06T17:40:21.799Z,19.40
2018-09-06T17:42:50.405Z,19.40
2018-09-06T17:45:18.975Z,19.40
2018-09-06T17:47:47.953Z,19.40
2018-09-06T17:50:16.495Z,19.40
2018-09-06T17:52:46.132Z,19.40
2018-09-06T17:55:14.767Z,19.40
2018-09-06T17:57:43.327Z,19.30
2018-09-06T18:00:12.495Z,19.30
2018-09-06T18:02:41.117Z,19.30
2018-09-06T18:05:09.371Z,19.30
2018-09-06T18:07:37.946Z,19.30
2018-09-06T18:10:06.890Z,19.20
2018-09-06T18:12:35.709Z,19.20
2018-09-06T18:15:05.203Z,19.20
2018-09-06T18:17:34.122Z,19.20
2018-09-06T18:20:03.353Z,19.20
2018-09-06T18:22:32.010Z,19.20
2018-09-06T18:25:00.774Z,19.20
2018-09-06T18:27:29.513Z,19.20
2018-09-06T18:29:59.377Z,19.20
2018-09-06T18:32:28.534Z,19.20
2018-09-06T18:34:57.890Z,19.30
2018-09-06T18:37:26.503Z,19.30
2018-09-06T18:39:55.889Z,19.30
2018-09-06T18:42:24.761Z,19.30
2018-09-06T18:44:53.351Z,19.20
2018-09-06T18:47:22.055Z,19.20
2018-09-06T18:49:50.974Z,19.20
2018-09-06T18:52:19.752Z,19.20
2018-09-06T18:54:48.260Z,19.20
2018-09-06T18:57:17.780Z,19.20
2018-09-06T18:59:47.003Z,19.20
2018-09-06T19:02:16.138Z,19.10
2018-09-06T19:04:46.808Z,19.10
2018-09-06T19:07:15.400Z,19.00
2018-09-06T19:09:44.415Z,18.80
2018-09-06T19:12:13.370Z,18.80
2018-09-06T19:14:41.938Z,18.70
2018-09-06T19:17:10.419Z,18.60
2018-09-06T19:19:39.257Z,18.60
2018-09-06T19:22:07.949Z,18.60
2018-09-06T19:24:36.494Z,18.40
2018-09-06T19:27:05.209Z,18.50
2018-09-06T19:29:33.724Z,18.50
2018-09-06T19:32:02.293Z,18.40
2018-09-06T19:34:30.891Z,18.30
2018-09-06T19:36:59.431Z,18.30
2018-09-06T19:39:27.958Z,18.30
2018-09-06T19:41:56.891Z,18.40
2018-09-06T19:44:25.411Z,18.40
2018-09-06T19:46:54.472Z,18.40
2018-09-06T19:49:23.401Z,18.40
2018-09-06T19:51:51.945Z,18.50
2018-09-06T19:54:20.907Z,18.50
2018-09-06T19:56:49.853Z,18.60
2018-09-06T19:59:18.405Z,18.70
2018-09-06T20:01:47.434Z,18.70
2018-09-06T20:04:16.322Z,18.70
2018-09-06T20:06:47.125Z,18.70
2018-09-06T20:09:15.682Z,18.60
2018-09-06T20:11:45.154Z,18.60
2018-09-06T20:14:13.793Z,18.60
2018-09-06T20:16:42.619Z,18.70
2018-09-06T20:19:11.167Z,18.70
2018-09-06T20:21:40.224Z,18.60
2018-09-06T20:24:08.809Z,18.60
2018-09-06T20:26:37.429Z,18.60
2018-09-06T20:29:06.271Z,18.60
2018-09-06T20:31:35.025Z,18.60
2018-09-06T20:34:03.507Z,18.60
2018-09-06T20:36:32.217Z,18.60
2018-09-06T20:39:00.804Z,18.60
2018-09-06T20:41:31.209Z,18.50
2018-09-06T20:43:59.884Z,18.60
2018-09-06T20:46:28.378Z,18.60
2018-09-06T20:48:56.994Z,18.50
2018-09-06T20:51:25.521Z,18.40
2018-09-06T20:53:54.259Z,18.30
2018-09-06T20:56:22.797Z,18.30
2018-09-06T20:58:54.449Z,18.20
2018-09-06T21:01:23.831Z,18.20
2018-09-06T21:03:53.345Z,18.20
2018-09-06T21:06:21.884Z,18.20
2018-09-06T21:08:50.884Z,18.20
2018-09-06T21:11:19.577Z,18.20
2018-09-06T21:13:48.138Z,18.10
2018-09-06T21:16:16.971Z,18.10
2018-09-06T21:18:45.502Z,18.10
2018-09-06T21:21:14.221Z,18.10
2018-09-06T21:23:42.691Z,18.10
2018-09-06T21:26:11.248Z,18.20
2018-09-06T21:28:39.774Z,18.10
2018-09-06T21:31:08.330Z,18.00
2018-09-06T21:33:36.899Z,18.00
2018-09-06T21:36:05.466Z,18.00
2018-09-06T21:38:34.003Z,18.00
2018-09-06T21:41:02.594Z,18.00
2018-09-06T21:43:31.162Z,18.10
2018-09-06T21:45:59.763Z,18.10
2018-09-06T21:48:28.290Z,18.10
2018-09-06T21:50:56.834Z,18.10
2018-09-06T21:53:25.474Z,18.10
2018-09-06T21:55:54.035Z,18.10
2018-09-06T21:58:22.565Z,18.10
2018-09-06T22:00:51.074Z,18.10
2018-09-06T22:03:24.880Z,18.10
2018-09-06T22:05:53.439Z,18.00
2018-09-06T22:08:22.052Z,18.00
2018-09-06T22:10:50.657Z,18.00
2018-09-06T22:13:19.187Z,18.10
2018-09-06T22:15:47.732Z,18.10
2018-09-06T22:18:16.335Z,18.10
2018-09-06T22:20:44.861Z,18.00
2018-09-06T22:23:13.426Z,17.90
2018-09-06T22:25:41.992Z,17.90
2018-09-06T22:28:10.599Z,17.90
2018-09-06T22:30:39.141Z,17.90
2018-09-06T22:33:07.699Z,17.90
2018-09-06T22:35:36.414Z,17.70
2018-09-06T22:38:05.003Z,17.70
2018-09-06T22:40:33.589Z,17.80
2018-09-06T22:43:02.205Z,17.80
2018-09-06T22:45:30.801Z,17.90
2018-09-06T22:47:59.317Z,18.00
2018-09-06T22:50:28.478Z,18.00
2018-09-06T22:52:57.039Z,17.90
2018-09-06T22:55:25.599Z,17.90
2018-09-06T22:57:54.165Z,18.00
2018-09-06T23:00:22.853Z,18.00
2018-09-06T23:02:56.731Z,18.00
2018-09-06T23:05:25.326Z,18.10
2018-09-06T23:07:53.913Z,18.10
2018-09-06T23:10:22.435Z,18.20
2018-09-06T23:12:50.969Z,18.20
2018-09-06T23:15:19.484Z,18.20
2018-09-06T23:17:48.062Z,18.20
2018-09-06T23:20:16.606Z,18.20
2018-09-06T23:22:45.326Z,18.30
2018-09-06T23:25:13.838Z,18.30
2018-09-06T23:27:42.399Z,18.30
2018-09-06T23:30:10.974Z,18.30
2018-09-06T23:32:39.483Z,18.30
2018-09-06T23:35:08.095Z,18.30
2018-09-06T23:37:36.655Z,18.40
2018-09-06T23:40:05.247Z,18.40
2018-09-06T23:42:33.779Z,18.40
2018-09-06T23:45:02.369Z,18.30
2018-09-06T23:47:30.898Z,18.30
2018-09-06T23:49:59.490Z,18.20
2018-09-06T23:52:27.998Z,18.20
2018-09-06T23:54:56.644Z,18.10
2018-09-06T23:57:25.175Z,18.10
2018-09-06T23:59:53.744Z,18.10
